Time;durP1;ratioP1;P1;durP2;ratioP2;P2;SDS_P1;SDS_P2;PMS_P1;PMS_P2;Temp;Humidity;BMP_temperature;BMP_pressure;BME280_temperature;BME280_humidity;BME280_pressure;Samples;Min_cycle;Max_cycle;Signal;HPM_P1;HPM_P2
2023/12/13 00:01:28;;;;;;;22.80;9.65;;;;;;;-148.88;100.00;-17125.47;5096375;28;20020;-87
2023/12/13 00:03:53;;;;;;;44.33;24.55;;;;;;;-148.88;100.00;-17125.47;5094940;28;20020;-87
2023/12/13 00:06:19;;;;;;;26.90;10.20;;;;;;;-148.88;100.00;-17125.47;5096412;28;20438;-87
2023/12/13 00:08:45;;;;;;;39.55;22.88;;;;;;;-148.88;100.00;-17125.47;5095944;28;20020;-88
2023/12/13 00:11:10;;;;;;;21.45;9.68;;;;;;;-148.88;100.00;-17125.47;5094952;28;20036;-88
2023/12/13 00:13:35;;;;;;;24.60;9.32;;;;;;;-148.88;100.00;-17125.47;5096325;28;20072;-87
2023/12/13 00:16:01;;;;;;;26.52;9.68;;;;;;;-148.88;100.00;-17125.47;5097355;28;20043;-88
2023/12/13 00:18:30;;;;;;;24.65;9.52;;;;;;;-148.88;100.00;-17125.47;5095870;28;20015;-88
2023/12/13 00:20:55;;;;;;;40.00;21.55;;;;;;;-148.88;100.00;-17125.47;5094018;28;20039;-87
2023/12/13 00:23:21;;;;;;;22.52;9.70;;;;;;;-148.88;100.00;-17125.47;5096003;28;20036;-88
2023/12/13 00:25:48;;;;;;;39.88;22.17;;;;;;;-148.88;100.00;-17125.47;5095039;28;20016;-88
2023/12/13 00:28:13;;;;;;;21.13;8.52;;;;;;;-148.88;100.00;-17125.47;5094203;28;20020;-88
2023/12/13 00:30:38;;;;;;;24.77;8.70;;;;;;;-148.88;100.00;-17125.47;5094104;28;20406;-87
2023/12/13 00:33:07;;;;;;;25.23;9.07;;;;;;;-148.88;100.00;-17125.47;5094183;28;20051;-87
2023/12/13 00:35:32;;;;;;;24.35;9.50;;;;;;;-148.88;100.00;-17125.47;5094259;28;20364;-88
2023/12/13 00:37:58;;;;;;;23.17;11.05;;;;;;;-148.88;100.00;-17125.47;5094114;28;20022;-89
2023/12/13 00:40:24;;;;;;;45.70;24.30;;;;;;;-148.88;100.00;-17125.47;5094261;28;20386;-87
2023/12/13 00:42:50;;;;;;;26.27;10.38;;;;;;;-148.88;100.00;-17125.47;5094558;28;20451;-87
2023/12/13 00:45:16;;;;;;;44.70;24.90;;;;;;;-148.88;100.00;-17125.47;5095631;28;20031;-88
2023/12/13 00:47:41;;;;;;;21.50;9.10;;;;;;;-148.88;100.00;-17125.47;5095707;28;20094;-87
2023/12/13 00:50:08;;;;;;;44.03;24.38;;;;;;;-148.88;100.00;-17125.47;5096591;28;20036;-89
2023/12/13 00:52:34;;;;;;;24.85;11.13;;;;;;;-148.88;100.00;-17125.47;5094456;28;20020;-87
2023/12/13 00:55:04;;;;;;;18.25;8.45;;;;;;;-148.88;100.00;-17125.47;5094334;28;20027;-87
2023/12/13 00:57:30;;;;;;;19.92;8.38;;;;;;;-148.88;100.00;-17125.47;5095270;28;20367;-88
2023/12/13 00:59:55;;;;;;;18.75;8.63;;;;;;;-148.88;100.00;-17125.47;5094199;28;20027;-87
2023/12/13 01:02:20;;;;;;;26.52;17.42;;;;;;;-148.88;100.00;-17125.47;5093809;28;20028;-87
2023/12/13 01:04:46;;;;;;;18.00;7.82;;;;;;;-148.88;100.00;-17125.47;5095403;28;20039;-87
2023/12/13 01:07:14;;;;;;;14.40;6.60;;;;;;;-148.88;100.00;-17125.47;5095111;28;20027;-88
2023/12/13 01:09:40;;;;;;;16.63;7.47;;;;;;;-148.88;100.00;-17125.47;5094907;28;20474;-88
2023/12/13 01:12:13;;;;;;;14.20;7.15;;;;;;;-148.88;100.00;-17125.47;5093500;28;20028;-88
2023/12/13 01:14:38;;;;;;;9.97;5.30;;;;;;;-148.88;100.00;-17125.47;5111052;28;20115;-87
2023/12/13 01:17:04;;;;;;;9.43;4.60;;;;;;;-148.88;100.00;-17125.47;5110298;28;20052;-88
2023/12/13 01:19:29;;;;;;;14.77;11.65;;;;;;;-148.88;100.00;-17125.47;5094293;28;20027;-87
2023/12/13 01:21:54;;;;;;;12.63;6.35;;;;;;;-148.88;100.00;-17125.47;5094804;28;20017;-88
2023/12/13 01:24:20;;;;;;;13.30;6.43;;;;;;;-148.88;100.00;-17125.47;5093827;28;20391;-88
2023/12/13 01:26:45;;;;;;;19.20;12.95;;;;;;;-148.88;100.00;-17125.47;5094867;28;20024;-88
2023/12/13 01:29:10;;;;;;;11.10;6.20;;;;;;;-148.88;100.00;-17125.47;5094522;28;20020;-87
2023/12/13 01:31:36;;;;;;;10.70;5.90;;;;;;;-148.88;100.00;-17125.47;5094837;28;20024;-87
2023/12/13 01:34:02;;;;;;;11.38;5.30;;;;;;;-148.88;100.00;-17125.47;5092946;28;20027;-87
2023/12/13 01:36:28;;;;;;;16.27;10.65;;;;;;;-148.88;100.00;-17125.47;5094524;28;20039;-88
2023/12/13 01:38:54;;;;;;;8.20;4.78;;;;;;;-148.88;100.00;-17125.47;5094304;28;20497;-88
2023/12/13 01:41:19;;;;;;;9.15;4.90;;;;;;;-148.88;100.00;-17125.47;5093125;28;20032;-88
2023/12/13 01:43:45;;;;;;;13.02;9.65;;;;;;;-148.88;100.00;-17125.47;5093578;28;20057;-88
2023/12/13 01:46:12;;;;;;;9.40;4.38;;;;;;;-148.88;100.00;-17125.47;5094424;28;20191;-86
2023/12/13 01:48:39;;;;;;;10.20;4.50;;;;;;;-148.88;100.00;-17125.47;5094147;28;20024;-88
2023/12/13 01:51:08;;;;;;;11.77;5.40;;;;;;;-148.88;100.00;-17125.47;5092444;28;20024;-87
2023/12/13 01:53:34;;;;;;;9.63;4.07;;;;;;;-148.88;100.00;-17125.47;5092522;28;20024;-88
2023/12/13 01:56:01;;;;;;;8.95;4.47;;;;;;;-148.88;100.00;-17125.47;5094114;28;20070;-87
2023/12/13 01:58:27;;;;;;;11.50;5.25;;;;;;;-148.88;100.00;-17125.47;5093043;28;20340;-89
2023/12/13 02:00:55;;;;;;;12.13;6.32;;;;;;;-148.88;100.00;-17125.47;5093029;28;20032;-87
2023/12/13 02:03:22;;;;;;;14.73;5.85;;;;;;;-148.88;100.00;-17125.47;5093960;28;20024;-88
2023/12/13 02:05:51;;;;;;;19.60;12.50;;;;;;;-148.88;100.00;-17125.47;5093552;28;20386;-87
2023/12/13 02:08:16;;;;;;;19.45;12.63;;;;;;;-148.88;100.00;-17125.47;5093613;28;20043;-88
2023/12/13 02:10:42;;;;;;;10.35;4.88;;;;;;;-148.88;100.00;-17125.47;5093888;28;20081;-87
2023/12/13 02:13:07;;;;;;;12.70;5.15;;;;;;;-148.88;100.00;-17125.47;5094046;28;20020;-88
2023/12/13 02:15:35;;;;;;;9.25;4.35;;;;;;;-148.88;100.00;-17125.47;5093634;28;20040;-88
2023/12/13 02:18:01;;;;;;;13.93;9.20;;;;;;;-148.88;100.00;-17125.47;5093435;28;20026;-88
2023/12/13 02:20:26;;;;;;;6.85;4.00;;;;;;;-148.88;100.00;-17125.47;5093533;28;20099;-88
2023/12/13 02:22:51;;;;;;;7.85;3.45;;;;;;;-148.88;100.00;-17125.47;5093513;28;20024;-88
2023/12/13 02:25:32;;;;;;;9.43;6.75;;;;;;;-148.88;100.00;-17125.47;5093574;28;20139;-87
2023/12/13 02:27:57;;;;;;;6.53;2.80;;;;;;;-148.88;100.00;-17125.47;5093085;28;20038;-87
2023/12/13 02:30:23;;;;;;;6.82;2.78;;;;;;;-148.88;100.00;-17125.47;5093540;28;20028;-87
2023/12/13 02:32:48;;;;;;;6.07;3.10;;;;;;;-148.88;100.00;-17125.47;5093797;28;20035;-87
2023/12/13 02:35:14;;;;;;;8.05;5.82;;;;;;;-148.88;100.00;-17125.47;5094434;28;20020;-87
2023/12/13 02:37:45;;;;;;;9.20;5.90;;;;;;;-148.88;100.00;-17125.47;5092917;28;20016;-87
2023/12/13 02:40:13;;;;;;;5.93;2.92;;;;;;;-148.88;100.00;-17125.47;5092496;28;20027;-87
2023/12/13 02:42:38;;;;;;;6.95;2.95;;;;;;;-148.88;100.00;-17125.47;5092466;28;20028;-87
2023/12/13 02:45:04;;;;;;;10.02;6.07;;;;;;;-148.88;100.00;-17125.47;5093319;28;20474;-87
2023/12/13 02:47:29;;;;;;;6.07;2.97;;;;;;;-148.88;100.00;-17125.47;5093662;28;20129;-88
2023/12/13 02:49:58;;;;;;;6.70;3.30;;;;;;;-148.88;100.00;-17125.47;5093077;28;20486;-86
2023/12/13 02:52:23;;;;;;;6.50;3.08;;;;;;;-148.88;100.00;-17125.47;5093984;28;20033;-87
2023/12/13 02:54:48;;;;;;;8.93;3.35;;;;;;;-148.88;100.00;-17125.47;5093420;28;20020;-87
2023/12/13 02:57:14;;;;;;;14.55;7.13;;;;;;;-148.88;100.00;-17125.47;5093797;28;20024;-87
2023/12/13 02:59:39;;;;;;;13.38;7.65;;;;;;;-148.88;100.00;-17125.47;5093416;28;20054;-87
2023/12/13 03:02:05;;;;;;;9.40;3.42;;;;;;;-148.88;100.00;-17125.47;5093394;28;20020;-87
2023/12/13 03:04:30;;;;;;;8.52;3.28;;;;;;;-148.88;100.00;-17125.47;5093359;28;20039;-87
2023/12/13 03:06:56;;;;;;;12.70;8.35;;;;;;;-148.88;100.00;-17125.47;5091895;28;20059;-87
2023/12/13 03:09:21;;;;;;;10.57;3.80;;;;;;;-148.88;100.00;-17125.47;5093522;28;20016;-88
2023/12/13 03:11:47;;;;;;;8.13;3.67;;;;;;;-148.88;100.00;-17125.47;5093298;28;20447;-86
2023/12/13 03:14:12;;;;;;;12.65;9.45;;;;;;;-148.88;100.00;-17125.47;5092043;28;20028;-87
2023/12/13 03:16:37;;;;;;;9.63;4.75;;;;;;;-148.88;100.00;-17125.47;5095073;28;20111;-87
2023/12/13 03:19:02;;;;;;;6.88;3.75;;;;;;;-148.88;100.00;-17125.47;5095937;28;20020;-86
2023/12/13 03:21:28;;;;;;;8.77;4.28;;;;;;;-148.88;100.00;-17125.47;5097197;28;20024;-87
2023/12/13 03:23:54;;;;;;;9.05;4.25;;;;;;;-148.88;100.00;-17125.47;5097137;28;20031;-87
2023/12/13 03:26:19;;;;;;;15.30;10.00;;;;;;;-148.88;100.00;-17125.47;5095852;28;20482;-87
2023/12/13 03:28:44;;;;;;;9.05;4.20;;;;;;;-148.88;100.00;-17125.47;5097004;28;20028;-87
2023/12/13 03:31:10;;;;;;;11.13;5.22;;;;;;;-148.88;100.00;-17125.47;5097424;28;20039;-87
2023/12/13 03:33:35;;;;;;;18.55;11.80;;;;;;;-148.88;100.00;-17125.47;5096968;28;20099;-87
2023/12/13 03:36:01;;;;;;;11.73;5.55;;;;;;;-148.88;100.00;-17125.47;5096745;28;20030;-87
2023/12/13 03:38:26;;;;;;;14.40;6.07;;;;;;;-148.88;100.00;-17125.47;5096682;28;20453;-88
2023/12/13 03:40:54;;;;;;;15.02;6.22;;;;;;;-148.88;100.00;-17125.47;5096964;28;20058;-87
2023/12/13 03:43:20;;;;;;;11.27;6.05;;;;;;;-148.88;100.00;-17125.47;5097187;28;20517;-88
2023/12/13 03:45:45;;;;;;;15.20;6.50;;;;;;;-148.88;100.00;-17125.47;5096944;28;20032;-87
2023/12/13 03:48:10;;;;;;;23.58;15.70;;;;;;;-148.88;100.00;-17125.47;5096666;28;20028;-87
2023/12/13 03:50:36;;;;;;;15.68;7.03;;;;;;;-148.88;100.00;-17125.47;5095782;28;20101;-87
2023/12/13 03:53:01;;;;;;;16.13;7.05;;;;;;;-148.88;100.00;-17125.47;5096889;28;20027;-88
2023/12/13 03:55:27;;;;;;;14.70;7.13;;;;;;;-148.88;100.00;-17125.47;5095780;28;20044;-88
2023/12/13 03:57:52;;;;;;;26.00;15.63;;;;;;;-148.88;100.00;-17125.47;5097023;28;20047;-88
2023/12/13 04:00:18;;;;;;;18.63;7.45;;;;;;;-148.88;100.00;-17125.47;5096819;28;20027;-88
2023/12/13 04:02:43;;;;;;;26.02;16.55;;;;;;;-148.88;100.00;-17125.47;5096515;28;20168;-88
2023/12/13 04:05:08;;;;;;;24.33;16.63;;;;;;;-148.88;100.00;-17125.47;5096674;28;20023;-88
2023/12/13 04:07:39;;;;;;;18.60;8.52;;;;;;;-148.88;100.00;-17125.47;5097549;28;20043;-88
2023/12/13 04:10:05;;;;;;;17.58;7.70;;;;;;;-148.88;100.00;-17125.47;5096496;28;20020;-90
2023/12/13 04:12:30;;;;;;;18.77;8.13;;;;;;;-148.88;100.00;-17125.47;5095002;28;20031;-89
2023/12/13 04:14:56;;;;;;;21.98;8.38;;;;;;;-148.88;100.00;-17125.47;5095424;28;20031;-89
2023/12/13 04:17:24;;;;;;;18.35;7.70;;;;;;;-148.88;100.00;-17125.47;5097139;28;20024;-87
2023/12/13 04:19:50;;;;;;;16.88;8.35;;;;;;;-148.88;100.00;-17125.47;5098048;28;20348;-90
2023/12/13 04:22:15;;;;;;;15.38;7.53;;;;;;;-148.88;100.00;-17125.47;5096321;28;20027;-87
2023/12/13 04:24:41;;;;;;;24.90;16.40;;;;;;;-148.88;100.00;-17125.47;5095910;28;20093;-87
2023/12/13 04:27:06;;;;;;;14.52;7.38;;;;;;;-148.88;100.00;-17125.47;5094020;28;20045;-87
2023/12/13 04:29:34;;;;;;;17.58;7.43;;;;;;;-148.88;100.00;-17125.47;5094976;28;20047;-88
2023/12/13 04:31:59;;;;;;;18.88;9.00;;;;;;;-148.88;100.00;-17125.47;5095682;28;20032;-88
2023/12/13 04:34:25;;;;;;;16.38;8.25;;;;;;;-148.88;100.00;-17125.47;5094568;28;20030;-88
2023/12/13 04:36:50;;;;;;;26.98;18.33;;;;;;;-148.88;100.00;-17125.47;5095628;28;20070;-88
2023/12/13 04:39:15;;;;;;;27.65;19.30;;;;;;;-148.88;100.00;-17125.47;5095529;28;20024;-87
2023/12/13 04:41:44;;;;;;;18.50;8.15;;;;;;;-148.88;100.00;-17125.47;5094576;28;20110;-88
2023/12/13 04:44:12;;;;;;;18.83;9.43;;;;;;;-148.88;100.00;-17125.47;5095299;28;20095;-88
2023/12/13 04:46:37;;;;;;;19.73;8.75;;;;;;;-148.88;100.00;-17125.47;5096040;28;20022;-88
2023/12/13 04:49:03;;;;;;;17.50;9.43;;;;;;;-148.88;100.00;-17125.47;5094514;28;20389;-88
2023/12/13 04:51:28;;;;;;;20.27;8.88;;;;;;;-148.88;100.00;-17125.47;5095858;28;20073;-88
2023/12/13 04:53:53;;;;;;;25.20;17.10;;;;;;;-148.88;100.00;-17125.47;5094600;28;20028;-88
2023/12/13 04:56:19;;;;;;;17.17;8.30;;;;;;;-148.88;100.00;-17125.47;5095530;28;20020;-88
2023/12/13 04:58:44;;;;;;;22.05;9.32;;;;;;;-148.88;100.00;-17125.47;5095374;28;20509;-88
2023/12/13 05:01:09;;;;;;;18.70;8.20;;;;;;;-148.88;100.00;-17125.47;5093791;28;20081;-87
2023/12/13 05:03:44;;;;;;;25.45;9.13;;;;;;;-148.88;100.00;-17125.47;5095546;28;20024;-88
2023/12/13 05:06:09;;;;;;;28.55;18.17;;;;;;;-148.88;100.00;-17125.47;5094270;28;20028;-88
2023/12/13 05:08:34;;;;;;;17.90;8.23;;;;;;;-148.88;100.00;-17125.47;5094853;28;20502;-88
2023/12/13 05:11:09;;;;;;;30.48;18.67;;;;;;;-148.88;100.00;-17125.47;5094837;28;20035;-88
2023/12/13 05:13:34;;;;;;;22.25;8.68;;;;;;;-148.88;100.00;-17125.47;5095257;28;20042;-88
2023/12/13 05:15:59;;;;;;;19.08;8.63;;;;;;;-148.88;100.00;-17125.47;5095636;28;20028;-88
2023/12/13 05:18:25;;;;;;;21.00;8.40;;;;;;;-148.88;100.00;-17125.47;5095605;28;20024;-88
2023/12/13 05:20:50;;;;;;;28.73;18.25;;;;;;;-148.88;100.00;-17125.47;5093798;28;20055;-88
2023/12/13 05:23:16;;;;;;;17.40;8.27;;;;;;;-148.88;100.00;-17125.47;5094426;28;20035;-88
2023/12/13 05:25:42;;;;;;;16.58;7.60;;;;;;;-148.88;100.00;-17125.47;5093274;28;20027;-89
2023/12/13 05:28:08;;;;;;;21.15;8.52;;;;;;;-148.88;100.00;-17125.47;5093442;28;20035;-87
2023/12/13 05:30:33;;;;;;;25.52;17.83;;;;;;;-148.88;100.00;-17125.47;5093549;28;20020;-88
2023/12/13 05:32:58;;;;;;;15.43;8.38;;;;;;;-148.88;100.00;-17125.47;5094904;28;20035;-87
2023/12/13 05:35:24;;;;;;;21.48;8.65;;;;;;;-148.88;100.00;-17125.47;5093605;28;20028;-88
2023/12/13 05:37:49;;;;;;;21.63;7.90;;;;;;;-148.88;100.00;-17125.47;5094689;28;20012;-88
2023/12/13 05:40:15;;;;;;;21.67;7.78;;;;;;;-148.88;100.00;-17125.47;5093257;28;20027;-88
2023/12/13 05:42:40;;;;;;;15.27;7.65;;;;;;;-148.88;100.00;-17125.47;5094043;28;20367;-88
2023/12/13 05:45:06;;;;;;;18.25;8.45;;;;;;;-148.88;100.00;-17125.47;5094769;28;20020;-88
2023/12/13 05:47:32;;;;;;;17.33;7.82;;;;;;;-148.88;100.00;-17125.47;5094140;28;20162;-88
2023/12/13 05:49:57;;;;;;;21.02;8.30;;;;;;;-148.88;100.00;-17125.47;5094654;28;20058;-86
2023/12/13 05:52:23;;;;;;;20.90;8.35;;;;;;;-148.88;100.00;-17125.47;5093891;28;20127;-87
2023/12/13 05:54:49;;;;;;;20.02;7.55;;;;;;;-148.88;100.00;-17125.47;5093588;28;20051;-87
2023/12/13 05:57:14;;;;;;;28.17;16.80;;;;;;;-148.88;100.00;-17125.47;5094470;28;20027;-87
2023/12/13 05:59:40;;;;;;;20.95;7.97;;;;;;;-148.88;100.00;-17125.47;5093301;28;20016;-88
2023/12/13 06:02:05;;;;;;;21.27;8.00;;;;;;;-148.88;100.00;-17125.47;5093766;28;20027;-87
2023/12/13 06:04:31;;;;;;;20.50;8.00;;;;;;;-148.88;100.00;-17125.47;5093482;28;20109;-87
2023/12/13 06:07:01;;;;;;;33.70;17.88;;;;;;;-148.88;100.00;-17125.47;5092754;28;20066;-88
2023/12/13 06:09:29;;;;;;;27.65;16.75;;;;;;;-148.88;100.00;-17125.47;5092653;28;20027;-88
2023/12/13 06:11:58;;;;;;;22.95;7.68;;;;;;;-148.88;100.00;-17125.47;5093387;28;20074;-87
2023/12/13 06:14:23;;;;;;;18.48;7.78;;;;;;;-148.88;100.00;-17125.47;5092283;28;20046;-88
2023/12/13 06:16:48;;;;;;;17.85;7.50;;;;;;;-148.88;100.00;-17125.47;5094537;28;20411;-88
2023/12/13 06:19:14;;;;;;;20.42;8.30;;;;;;;-148.88;100.00;-17125.47;5094705;28;20094;-88
2023/12/13 06:21:39;;;;;;;25.80;16.38;;;;;;;-148.88;100.00;-17125.47;5093717;28;20031;-88
2023/12/13 06:24:11;;;;;;;30.80;17.23;;;;;;;-148.88;100.00;-17125.47;5093909;28;20047;-87
2023/12/13 06:26:36;;;;;;;18.10;7.60;;;;;;;-148.88;100.00;-17125.47;5092725;28;20020;-88
2023/12/13 06:29:01;;;;;;;21.50;8.55;;;;;;;-148.88;100.00;-17125.47;5092470;28;20047;-88
2023/12/13 06:31:27;;;;;;;34.78;18.58;;;;;;;-148.88;100.00;-17125.47;5094003;28;20042;-89
2023/12/13 06:33:52;;;;;;;19.90;7.50;;;;;;;-148.88;100.00;-17125.47;5093033;28;20035;-87
2023/12/13 06:36:18;;;;;;;17.70;7.50;;;;;;;-148.88;100.00;-17125.47;5093335;28;20140;-87
2023/12/13 06:38:43;;;;;;;19.77;8.38;;;;;;;-148.88;100.00;-17125.47;5093566;28;20031;-88
2023/12/13 06:41:11;;;;;;;16.20;7.07;;;;;;;-148.88;100.00;-17125.47;5092313;28;20394;-88
2023/12/13 06:43:37;;;;;;;18.92;8.32;;;;;;;-148.88;100.00;-17125.47;5091927;28;20028;-87
2023/12/13 06:46:02;;;;;;;16.02;6.95;;;;;;;-148.88;100.00;-17125.47;5093258;28;20042;-88
2023/12/13 06:48:29;;;;;;;29.02;16.75;;;;;;;-148.88;100.00;-17125.47;5091954;28;20028;-87
2023/12/13 06:50:55;;;;;;;15.35;7.97;;;;;;;-148.88;100.00;-17125.47;5094767;28;20020;-87
2023/12/13 06:53:21;;;;;;;24.83;9.98;;;;;;;-148.88;100.00;-17125.47;5096387;28;20031;-87
2023/12/13 06:56:05;;;;;;;28.08;18.10;;;;;;;-148.88;100.00;-17125.47;5113128;28;20043;-87
2023/12/13 06:58:30;;;;;;;18.85;7.93;;;;;;;-148.88;100.00;-17125.47;5097695;28;20020;-88
2023/12/13 07:00:55;;;;;;;18.80;8.00;;;;;;;-148.88;100.00;-17125.47;5096845;28;20032;-85
2023/12/13 07:03:21;;;;;;;19.20;8.57;;;;;;;-148.88;100.00;-17125.47;5097291;28;20486;-85
2023/12/13 07:05:53;;;;;;;16.98;8.10;;;;;;;-148.88;100.00;-17125.47;5097344;28;20509;-86
2023/12/13 07:08:19;;;;;;;31.30;19.17;;;;;;;-148.88;100.00;-17125.47;5095911;28;20058;-85
2023/12/13 07:10:46;;;;;;;21.25;8.73;;;;;;;-148.88;100.00;-17125.47;5097060;28;20038;-84
2023/12/13 07:13:11;;;;;;;19.15;8.25;;;;;;;-148.88;100.00;-17125.47;5095758;28;20068;-84
2023/12/13 07:15:37;;;;;;;19.65;8.57;;;;;;;-148.88;100.00;-17125.47;5094991;28;20028;-85
2023/12/13 07:18:03;;;;;;;14.23;6.93;;;;;;;-148.88;100.00;-17125.47;5094795;28;20035;-85
2023/12/13 07:20:30;;;;;;;19.83;8.25;;;;;;;-148.88;100.00;-17125.47;5096548;28;20020;-87
2023/12/13 07:22:56;;;;;;;20.48;8.32;;;;;;;-148.88;100.00;-17125.47;5095365;28;20020;-87
2023/12/13 07:25:22;;;;;;;19.45;8.32;;;;;;;-148.88;100.00;-17125.47;5096367;28;20027;-87
2023/12/13 07:27:50;;;;;;;28.95;18.00;;;;;;;-148.88;100.00;-17125.47;5096596;28;20060;-86
2023/12/13 07:30:15;;;;;;;22.00;8.77;;;;;;;-148.88;100.00;-17125.47;5096324;28;20131;-86
2023/12/13 07:32:41;;;;;;;16.88;7.97;;;;;;;-148.88;100.00;-17125.47;5096302;28;20031;-86
2023/12/13 07:35:08;;;;;;;16.27;7.78;;;;;;;-148.88;100.00;-17125.47;5095118;28;20507;-85
2023/12/13 07:37:33;;;;;;;21.17;9.38;;;;;;;-148.88;100.00;-17125.47;5095718;28;20081;-86
2023/12/13 07:39:58;;;;;;;23.02;10.85;;;;;;;-148.88;100.00;-17125.47;5095237;28;20028;-86
2023/12/13 07:42:24;;;;;;;45.05;29.42;;;;;;;-148.88;100.00;-17125.47;5097492;28;20039;-86
2023/12/13 07:44:49;;;;;;;39.33;25.10;;;;;;;-148.88;100.00;-17125.47;5095062;28;20023;-84
2023/12/13 07:47:14;;;;;;;27.67;11.23;;;;;;;-148.88;100.00;-17125.47;5096110;28;20135;-85
2023/12/13 07:49:40;;;;;;;29.52;13.73;;;;;;;-148.88;100.00;-17125.47;5096301;28;20019;-84
2023/12/13 07:52:08;;;;;;;47.83;20.10;;;;;;;-148.88;100.00;-17125.47;5094591;28;20085;-85
2023/12/13 07:54:35;;;;;;;41.70;16.90;;;;;;;-148.88;100.00;-17125.47;5095587;28;20491;-86
2023/12/13 07:57:00;;;;;;;45.00;30.25;;;;;;;-148.88;100.00;-17125.47;5094978;28;20059;-86
2023/12/13 07:59:26;;;;;;;40.95;14.23;;;;;;;-148.88;100.00;-17125.47;5094439;28;20454;-86
2023/12/13 08:01:58;;;;;;;18.10;9.77;;;;;;;-148.88;100.00;-17125.47;5094527;28;20020;-86
2023/12/13 08:04:24;;;;;;;23.42;15.88;;;;;;;-148.88;100.00;-17125.47;5095762;28;20024;-86
2023/12/13 08:06:49;;;;;;;14.65;6.97;;;;;;;-148.88;100.00;-17125.47;5095714;28;20081;-86
2023/12/13 08:09:15;;;;;;;20.77;13.25;;;;;;;-148.88;100.00;-17125.47;5095630;28;20107;-86
2023/12/13 08:11:40;;;;;;;24.25;14.40;;;;;;;-148.88;100.00;-17125.47;5094747;28;20107;-85
2023/12/13 08:14:06;;;;;;;16.48;6.15;;;;;;;-148.88;100.00;-17125.47;5095850;28;20020;-85
2023/12/13 08:16:31;;;;;;;13.98;6.10;;;;;;;-148.88;100.00;-17125.47;5096453;28;20051;-84
2023/12/13 08:18:57;;;;;;;15.57;6.28;;;;;;;-148.88;100.00;-17125.47;5094964;28;20043;-83
2023/12/13 08:21:23;;;;;;;23.92;14.70;;;;;;;-148.88;100.00;-17125.47;5094464;28;20042;-83
2023/12/13 08:23:49;;;;;;;24.55;15.63;;;;;;;-148.88;100.00;-17125.47;5094274;28;20024;-83
2023/12/13 08:26:25;;;;;;;18.95;6.82;;;;;;;-148.88;100.00;-17125.47;5094217;28;20023;-84
2023/12/13 08:28:51;;;;;;;13.88;7.40;;;;;;;-148.88;100.00;-17125.47;5095283;28;20016;-84
2023/12/13 08:31:17;;;;;;;15.45;7.32;;;;;;;-148.88;100.00;-17125.47;5095389;28;20028;-86
2023/12/13 08:33:43;;;;;;;14.70;6.93;;;;;;;-148.88;100.00;-17125.47;5093809;28;20659;-85
2023/12/13 08:36:12;;;;;;;16.48;7.28;;;;;;;-148.88;100.00;-17125.47;5095106;28;20034;-86
2023/12/13 08:38:41;;;;;;;19.92;7.18;;;;;;;-148.88;100.00;-17125.47;5094181;28;20024;-84
2023/12/13 08:41:07;;;;;;;23.58;15.75;;;;;;;-148.88;100.00;-17125.47;5095121;28;20024;-85
2023/12/13 08:43:33;;;;;;;16.00;7.30;;;;;;;-148.88;100.00;-17125.47;5093848;28;20038;-85
2023/12/13 08:45:58;;;;;;;14.77;6.47;;;;;;;-148.88;100.00;-17125.47;5095559;28;20023;-84
2023/12/13 08:48:24;;;;;;;25.60;15.68;;;;;;;-148.88;100.00;-17125.47;5095235;28;20099;-85
2023/12/13 08:50:49;;;;;;;15.20;7.05;;;;;;;-148.88;100.00;-17125.47;5095289;28;20032;-84
2023/12/13 08:53:15;;;;;;;12.57;6.10;;;;;;;-148.88;100.00;-17125.47;5094346;28;20387;-85
2023/12/13 08:55:40;;;;;;;14.50;7.28;;;;;;;-148.88;100.00;-17125.47;5095264;28;20059;-85
2023/12/13 08:58:06;;;;;;;14.32;7.35;;;;;;;-148.88;100.00;-17125.47;5093864;28;20028;-84
2023/12/13 09:00:31;;;;;;;26.63;16.58;;;;;;;-148.88;100.00;-17125.47;5094886;28;20023;-83
2023/12/13 09:02:57;;;;;;;15.27;6.78;;;;;;;-148.88;100.00;-17125.47;5095425;28;20351;-84
2023/12/13 09:05:25;;;;;;;15.20;6.95;;;;;;;-148.88;100.00;-17125.47;5095008;28;20473;-85
2023/12/13 09:07:50;;;;;;;13.73;6.85;;;;;;;-148.88;100.00;-17125.47;5094248;28;20020;-85
2023/12/13 09:10:16;;;;;;;16.02;6.75;;;;;;;-148.88;100.00;-17125.47;5094703;28;20024;-85
2023/12/13 09:12:41;;;;;;;13.55;5.95;;;;;;;-148.88;100.00;-17125.47;5094055;28;20048;-85
2023/12/13 09:15:07;;;;;;;16.52;6.38;;;;;;;-148.88;100.00;-17125.47;5094154;28;20028;-84
2023/12/13 09:17:36;;;;;;;23.85;14.95;;;;;;;-148.88;100.00;-17125.47;5094496;28;20035;-85
2023/12/13 09:20:02;;;;;;;15.20;6.53;;;;;;;-148.88;100.00;-17125.47;5093399;28;20081;-86
2023/12/13 09:22:27;;;;;;;15.38;6.55;;;;;;;-148.88;100.00;-17125.47;5094750;28;20070;-85
2023/12/13 09:24:53;;;;;;;23.10;15.63;;;;;;;-148.88;100.00;-17125.47;5093033;28;20027;-85
2023/12/13 09:27:19;;;;;;;13.68;6.43;;;;;;;-148.88;100.00;-17125.47;5094702;28;20043;-84
2023/12/13 09:29:44;;;;;;;24.55;15.75;;;;;;;-148.88;100.00;-17125.47;5095046;28;20024;-85
2023/12/13 09:32:10;;;;;;;14.98;6.93;;;;;;;-148.88;100.00;-17125.47;5094069;28;20390;-83
2023/12/13 09:34:35;;;;;;;27.45;16.35;;;;;;;-148.88;100.00;-17125.47;5094651;28;20028;-84
2023/12/13 09:37:00;;;;;;;21.98;8.15;;;;;;;-148.88;100.00;-17125.47;5094039;28;20024;-84
2023/12/13 09:39:26;;;;;;;16.33;7.45;;;;;;;-148.88;100.00;-17125.47;5093945;28;20419;-84
2023/12/13 09:41:57;;;;;;;18.77;7.55;;;;;;;-148.88;100.00;-17125.47;5094052;28;20024;-84
2023/12/13 09:44:23;;;;;;;17.33;8.10;;;;;;;-148.88;100.00;-17125.47;5092971;28;20055;-84
2023/12/13 09:46:53;;;;;;;30.02;17.25;;;;;;;-148.88;100.00;-17125.47;5094374;28;20467;-84
2023/12/13 09:49:20;;;;;;;12.90;7.10;;;;;;;-148.88;100.00;-17125.47;5092265;28;20028;-84
2023/12/13 09:51:47;;;;;;;29.30;17.35;;;;;;;-148.88;100.00;-17125.47;5092732;28;20054;-84
2023/12/13 09:54:12;;;;;;;26.52;18.67;;;;;;;-148.88;100.00;-17125.47;5093846;28;20386;-84
2023/12/13 09:56:38;;;;;;;26.83;18.55;;;;;;;-148.88;100.00;-17125.47;5094050;28;20447;-85
2023/12/13 09:59:03;;;;;;;28.05;18.83;;;;;;;-148.88;100.00;-17125.47;5093860;28;20078;-84
2023/12/13 10:01:29;;;;;;;29.77;19.27;;;;;;;-148.88;100.00;-17125.47;5094712;28;20396;-88
2023/12/13 10:03:54;;;;;;;33.35;19.42;;;;;;;-148.88;100.00;-17125.47;5093992;28;20036;-89
2023/12/13 10:06:20;;;;;;;17.38;7.60;;;;;;;-148.88;100.00;-17125.47;5094910;28;20024;-88
2023/12/13 10:08:53;;;;;;;16.60;7.30;;;;;;;-148.88;100.00;-17125.47;5093790;28;20082;-89
2023/12/13 10:11:18;;;;;;;28.67;18.58;;;;;;;-148.88;100.00;-17125.47;5094059;28;20024;-88
2023/12/13 10:13:44;;;;;;;33.50;20.65;;;;;;;-148.88;100.00;-17125.47;5094360;28;20028;-89
2023/12/13 10:16:10;;;;;;;19.45;8.80;;;;;;;-148.88;100.00;-17125.47;5093741;28;20032;-89
2023/12/13 10:18:36;;;;;;;18.88;7.75;;;;;;;-148.88;100.00;-17125.47;5093672;28;20056;-88
2023/12/13 10:21:03;;;;;;;29.45;18.55;;;;;;;-148.88;100.00;-17125.47;5093953;28;20047;-89
2023/12/13 10:23:30;;;;;;;36.00;21.08;;;;;;;-148.88;100.00;-17125.47;5093798;28;20055;-88
2023/12/13 10:25:55;;;;;;;22.58;10.63;;;;;;;-148.88;100.00;-17125.47;5093416;28;20073;-88
2023/12/13 10:28:21;;;;;;;22.88;9.25;;;;;;;-148.88;100.00;-17125.47;5094297;28;20488;-90
2023/12/13 10:30:50;;;;;;;39.28;21.75;;;;;;;-148.88;100.00;-17125.47;5094450;28;20069;-89
2023/12/13 10:33:16;;;;;;;36.42;21.77;;;;;;;-148.88;100.00;-17125.47;5094447;28;20028;-88
2023/12/13 10:35:41;;;;;;;34.25;20.15;;;;;;;-148.88;100.00;-17125.47;5094601;28;20099;-89
2023/12/13 10:38:13;;;;;;;34.13;19.38;;;;;;;-148.88;100.00;-17125.47;5093119;28;20048;-90
2023/12/13 10:40:40;;;;;;;18.55;8.68;;;;;;;-148.88;100.00;-17125.47;5094559;28;20106;-89
2023/12/13 10:43:10;;;;;;;23.92;10.00;;;;;;;-148.88;100.00;-17125.47;5093883;28;20095;-89
2023/12/13 10:45:39;;;;;;;35.63;19.33;;;;;;;-148.88;100.00;-17125.47;5093377;28;20031;-89
2023/12/13 10:48:08;;;;;;;39.17;21.13;;;;;;;-148.88;100.00;-17125.47;5093550;28;20490;-87